Time;durP1;ratioP1;P1;durP2;ratioP2;P2;SDS_P1;SDS_P2;PMS_P1;PMS_P2;Temp;Humidity;BMP_temperature;BMP_pressure;BME280_temperature;BME280_humidity;BME280_pressure;Samples;Min_cycle;Max_cycle;Signal;HPM_P1;HPM_P2
2023/04/13 00:04:08;;;;;;;13.50;8.90;;;10.70;99.90;;;;;;12623532;23;20173;-85
2023/04/13 00:09:11;;;;;;;11.20;7.63;;;10.50;99.90;;;;;;12608843;23;20170;-85
2023/04/13 00:14:14;;;;;;;9.90;6.97;;;10.80;99.90;;;;;;12608669;23;20190;-85
2023/04/13 00:19:16;;;;;;;14.83;7.43;;;10.80;99.90;;;;;;12608929;23;20215;-85
2023/04/13 00:24:19;;;;;;;12.23;9.83;;;10.90;99.90;;;;;;12608455;23;20174;-85
2023/04/13 00:29:22;;;;;;;14.33;10.87;;;10.80;99.90;;;;;;12607581;23;20236;-85
2023/04/13 00:34:25;;;;;;;11.70;7.90;;;10.80;99.90;;;;;;12631109;23;20209;-85
2023/04/13 00:39:29;;;;;;;17.03;12.37;;;10.80;99.90;;;;;;12582196;23;20205;-84
2023/04/13 00:44:32;;;;;;;17.47;12.07;;;10.70;99.90;;;;;;12608797;23;20166;-84
2023/04/13 00:49:35;;;;;;;9.90;7.40;;;10.80;99.90;;;;;;12608132;23;20182;-84
2023/04/13 00:54:37;;;;;;;14.97;11.63;;;10.80;99.90;;;;;;12631258;23;20691;-85
2023/04/13 00:59:40;;;;;;;15.23;10.33;;;10.50;99.90;;;;;;12630509;23;20205;-85
2023/04/13 01:04:44;;;;;;;24.67;16.03;;;10.20;99.90;;;;;;12582676;23;20182;-85
2023/04/13 01:10:07;;;;;;;15.63;11.63;;;9.90;99.90;;;;;;12606452;23;20551;-84
2023/04/13 01:15:15;;;;;;;28.37;18.13;;;9.80;99.90;;;;;;12606351;23;20182;-84
2023/04/13 01:20:19;;;;;;;25.77;17.60;;;9.50;99.90;;;;;;12631340;23;20198;-84
2023/04/13 01:25:30;;;;;;;15.73;12.60;;;9.20;99.90;;;;;;12631065;23;20616;-85
2023/04/13 01:30:34;;;;;;;19.13;12.83;;;8.90;99.90;;;;;;12605439;23;20185;-84
2023/04/13 01:35:38;;;;;;;22.97;16.03;;;9.20;99.90;;;;;;12580558;23;20273;-85
2023/04/13 01:40:43;;;;;;;14.13;9.33;;;9.20;99.90;;;;;;12605627;23;20253;-84
2023/04/13 01:45:52;;;;;;;24.23;15.40;;;9.50;99.90;;;;;;12606079;23;20229;-84
2023/04/13 01:51:19;;;;;;;22.97;15.93;;;9.50;99.90;;;;;;12606547;23;20600;-84
2023/04/13 01:56:27;;;;;;;29.07;19.23;;;9.70;99.90;;;;;;12606689;23;20257;-84
2023/04/13 02:01:37;;;;;;;25.93;17.90;;;9.70;99.90;;;;;;12606369;23;20209;-85
2023/04/13 02:06:39;;;;;;;18.47;13.63;;;9.80;99.90;;;;;;12606466;23;20186;-84
2023/04/13 02:11:43;;;;;;;15.20;10.77;;;9.90;99.90;;;;;;12605759;23;20206;-85
2023/04/13 02:16:46;;;;;;;11.03;8.33;;;9.90;99.90;;;;;;12606881;23;20643;-85
2023/04/13 02:21:49;;;;;;;16.23;12.43;;;9.90;99.90;;;;;;12609281;23;20573;-85
2023/04/13 02:26:53;;;;;;;20.63;14.97;;;10.00;99.90;;;;;;12633935;23;20245;-85
2023/04/13 02:31:56;;;;;;;25.20;17.43;;;9.80;99.90;;;;;;12608967;23;20236;-85
2023/04/13 02:36:59;;;;;;;30.87;19.10;;;9.30;99.90;;;;;;12559363;23;20206;-85
2023/04/13 02:42:03;;;;;;;24.30;17.83;;;9.20;99.90;;;;;;12549946;23;20182;-85
2023/04/13 02:47:08;;;;;;;26.17;18.23;;;9.00;99.90;;;;;;12524873;23;20250;-85
2023/04/13 02:52:12;;;;;;;14.90;9.80;;;8.90;99.90;;;;;;12573786;23;20187;-85
2023/04/13 02:57:24;;;;;;;26.67;18.57;;;9.00;99.90;;;;;;12549603;23;20282;-85
2023/04/13 03:02:28;;;;;;;23.67;15.40;;;9.00;99.90;;;;;;12548812;23;20181;-85
2023/04/13 03:07:33;;;;;;;18.63;13.33;;;8.50;99.90;;;;;;12525155;23;20189;-85
2023/04/13 03:12:36;;;;;;;17.17;13.17;;;8.70;99.90;;;;;;12525370;23;20186;-85
2023/04/13 03:17:42;;;;;;;23.77;17.50;;;8.90;99.90;;;;;;12548679;23;20521;-85
2023/04/13 03:22:52;;;;;;;15.53;11.50;;;9.00;99.90;;;;;;12572340;23;20183;-85
2023/04/13 03:27:57;;;;;;;21.73;15.87;;;9.30;99.90;;;;;;12524020;23;20641;-85
2023/04/13 03:33:03;;;;;;;21.13;14.87;;;9.40;99.90;;;;;;12551702;23;20596;-85
2023/04/13 03:38:10;;;;;;;25.73;17.80;;;9.50;99.90;;;;;;12610022;23;20193;-85
2023/04/13 03:43:17;;;;;;;24.00;17.90;;;9.10;99.90;;;;;;12606969;23;20178;-85
2023/04/13 03:48:26;;;;;;;24.50;18.13;;;9.30;99.90;;;;;;12607576;23;20181;-84
2023/04/13 03:53:29;;;;;;;23.77;17.53;;;9.00;99.90;;;;;;12627969;23;20166;-85
2023/04/13 03:58:31;;;;;;;17.53;14.07;;;9.10;99.90;;;;;;12583914;23;20262;-84
2023/04/13 04:03:37;;;;;;;22.43;15.87;;;9.30;99.90;;;;;;12631248;23;20178;-84
2023/04/13 04:08:44;;;;;;;25.00;18.03;;;9.10;99.90;;;;;;12608267;23;20182;-85
2023/04/13 04:13:59;;;;;;;23.20;17.50;;;9.10;99.90;;;;;;12587147;23;20181;-85
2023/04/13 04:19:03;;;;;;;19.50;14.40;;;9.20;99.90;;;;;;12582239;23;20201;-85
2023/04/13 04:24:07;;;;;;;25.03;17.23;;;9.20;99.90;;;;;;12583324;23;20671;-85
2023/04/13 04:29:12;;;;;;;22.90;15.07;;;9.20;99.90;;;;;;12583348;23;20186;-86
2023/04/13 04:34:16;;;;;;;27.30;18.77;;;9.20;99.90;;;;;;12582819;23;20265;-86
2023/04/13 04:39:22;;;;;;;17.53;11.73;;;9.40;99.90;;;;;;12608894;23;20186;-87
2023/04/13 04:44:32;;;;;;;19.87;14.97;;;9.50;99.90;;;;;;12631699;23;20239;-87
2023/04/13 04:49:40;;;;;;;19.93;11.13;;;9.70;99.90;;;;;;12607048;23;20508;-86
2023/04/13 04:54:43;;;;;;;20.17;15.17;;;9.90;99.90;;;;;;12605892;23;20238;-85
2023/04/13 04:59:48;;;;;;;22.73;16.30;;;10.30;99.90;;;;;;12580777;23;20197;-85
2023/04/13 05:04:52;;;;;;;19.70;14.33;;;10.20;99.90;;;;;;12579547;23;20257;-85
2023/04/13 05:09:56;;;;;;;32.30;18.30;;;10.50;99.90;;;;;;12628874;23;20182;-86
2023/04/13 05:15:00;;;;;;;26.53;18.93;;;10.50;99.90;;;;;;12605257;23;20245;-85
2023/04/13 05:20:05;;;;;;;22.70;16.80;;;10.40;99.90;;;;;;12629720;23;20198;-86
2023/04/13 05:25:40;;;;;;;20.63;15.07;;;10.50;99.90;;;;;;12618144;23;20182;-85
2023/04/13 05:30:51;;;;;;;23.27;15.37;;;10.60;99.90;;;;;;12630766;23;20182;-85
2023/04/13 05:35:54;;;;;;;20.50;16.53;;;10.80;99.90;;;;;;12611494;23;20237;-86
2023/04/13 05:40:57;;;;;;;29.93;19.53;;;10.70;99.90;;;;;;12608987;23;20210;-84
2023/04/13 05:46:00;;;;;;;27.93;19.57;;;10.30;99.90;;;;;;12610584;23;20166;-84
2023/04/13 05:51:03;;;;;;;37.37;21.13;;;10.20;99.90;;;;;;12610267;23;20528;-85
2023/04/13 05:56:08;;;;;;;34.90;20.57;;;9.90;99.90;;;;;;12632933;23;20595;-84
2023/04/13 06:01:13;;;;;;;25.23;15.67;;;9.80;99.90;;;;;;12585744;23;20253;-84
2023/04/13 06:06:16;;;;;;;29.30;18.23;;;9.80;99.90;;;;;;12609972;23;20189;-84
2023/04/13 06:11:19;;;;;;;23.57;17.57;;;9.80;99.90;;;;;;12633325;23;20178;-84
2023/04/13 06:16:22;;;;;;;32.03;19.40;;;9.70;99.90;;;;;;12583647;23;20185;-84
2023/04/13 06:21:27;;;;;;;28.33;19.97;;;9.70;99.90;;;;;;12613115;23;20189;-84
2023/04/13 06:26:30;;;;;;;28.50;19.00;;;9.70;99.90;;;;;;12586051;23;20209;-85
2023/04/13 06:31:33;;;;;;;29.27;18.10;;;9.80;99.90;;;;;;12609684;23;20479;-84
2023/04/13 06:36:40;;;;;;;25.50;16.57;;;9.70;99.90;;;;;;12583220;23;20206;-84
2023/04/13 06:41:46;;;;;;;18.73;13.20;;;9.90;99.90;;;;;;12605696;23;20209;-84
2023/04/13 06:46:56;;;;;;;21.77;15.40;;;10.20;99.90;;;;;;12606552;23;20178;-85
2023/04/13 06:52:01;;;;;;;20.60;15.60;;;10.30;99.90;;;;;;12605988;23;20185;-84
2023/04/13 06:57:04;;;;;;;16.43;11.70;;;10.30;99.90;;;;;;12609239;23;20174;-85
2023/04/13 07:02:08;;;;;;;21.27;15.60;;;10.60;99.90;;;;;;12630868;23;20242;-85
2023/04/13 07:07:11;;;;;;;24.70;16.33;;;10.70;99.90;;;;;;12634721;23;20583;-85
2023/04/13 07:12:14;;;;;;;26.67;18.03;;;10.60;99.90;;;;;;12610654;23;20182;-85
2023/04/13 07:17:18;;;;;;;24.80;17.70;;;10.60;99.90;;;;;;12609868;23;20182;-85
2023/04/13 07:22:21;;;;;;;32.10;19.63;;;10.60;99.90;;;;;;12611669;23;20186;-86
2023/04/13 07:27:26;;;;;;;22.57;16.73;;;10.60;99.90;;;;;;12611862;23;20177;-85
2023/04/13 07:32:29;;;;;;;21.77;15.27;;;10.60;99.90;;;;;;12624554;23;20166;-96
2023/04/13 07:37:34;;;;;;;25.17;17.73;;;10.80;99.90;;;;;;12654003;23;20218;-80
2023/04/13 07:42:38;;;;;;;28.23;18.00;;;11.20;99.90;;;;;;12850934;23;20273;-80
2023/04/13 07:47:40;;;;;;;68.17;20.07;;;11.30;99.90;;;;;;12850692;23;20178;-81
2023/04/13 07:52:45;;;;;;;54.17;18.57;;;11.60;99.90;;;;;;12850642;23;20253;-80
2023/04/13 07:57:49;;;;;;;25.63;17.77;;;11.80;99.90;;;;;;12839924;23;20203;-88
2023/04/13 08:02:53;;;;;;;34.67;20.20;;;11.90;99.90;;;;;;12814295;23;20573;-87
2023/04/13 08:07:58;;;;;;;27.27;18.53;;;12.00;99.90;;;;;;12773016;23;20244;-87
2023/04/13 08:13:00;;;;;;;28.03;19.10;;;12.10;99.90;;;;;;12773477;23;20266;-87
2023/04/13 08:18:04;;;;;;;33.60;17.17;;;12.20;99.90;;;;;;12773086;23;20179;-88
2023/04/13 08:23:07;;;;;;;28.43;20.07;;;12.40;99.90;;;;;;12774318;23;20196;-88
2023/04/13 08:28:12;;;;;;;29.23;16.90;;;12.70;99.90;;;;;;12774872;23;20522;-89
2023/04/13 08:33:15;;;;;;;27.80;19.77;;;12.90;99.00;;;;;;12801410;23;20168;-85
2023/04/13 08:38:18;;;;;;;24.50;18.80;;;13.10;98.30;;;;;;12803296;23;20492;-88
2023/04/13 08:43:24;;;;;;;31.20;15.40;;;13.00;98.50;;;;;;12776636;23;20179;-87
2023/04/13 08:48:27;;;;;;;27.87;16.60;;;12.90;99.90;;;;;;12805716;23;20289;-88
2023/04/13 08:53:45;;;;;;;29.13;16.30;;;13.00;99.90;;;;;;12827021;23;20551;-87
2023/04/13 08:59:00;;;;;;;24.10;17.07;;;13.20;99.90;;;;;;12807598;23;20204;-88
2023/04/13 09:04:08;;;;;;;24.67;17.50;;;13.50;99.10;;;;;;12783352;23;20175;-88
2023/04/13 09:09:17;;;;;;;25.80;18.93;;;13.90;99.90;;;;;;12805123;23;20184;-88
2023/04/13 09:14:20;;;;;;;27.20;16.97;;;14.10;97.00;;;;;;12778918;23;20180;-88
2023/04/13 09:19:31;;;;;;;29.60;18.77;;;14.30;96.00;;;;;;12799267;23;20200;-88
2023/04/13 09:24:40;;;;;;;28.67;19.67;;;14.50;95.80;;;;;;12771538;23;20210;-88
2023/04/13 09:29:51;;;;;;;27.20;17.17;;;14.20;96.40;;;;;;12799887;23;20171;-88
2023/04/13 09:35:04;;;;;;;20.33;11.30;;;14.50;99.10;;;;;;12813690;23;20179;-87
2023/04/13 09:40:10;;;;;;;28.17;10.83;;;15.00;99.90;;;;;;12816553;23;20191;-87
2023/04/13 09:45:12;;;;;;;24.57;14.83;;;15.20;99.90;;;;;;12798364;23;20579;-87
2023/04/13 09:50:21;;;;;;;27.57;10.50;;;15.50;99.90;;;;;;12798243;23;20223;-88
2023/04/13 09:55:24;;;;;;;18.47;10.93;;;15.50;99.90;;;;;;12833435;23;20160;-88
2023/04/13 10:00:26;;;;;;;24.73;14.67;;;15.40;99.90;;;;;;12851180;23;20287;-87
2023/04/13 10:05:33;;;;;;;21.70;13.43;;;15.40;99.10;;;;;;12850384;23;20255;-88
2023/04/13 10:10:49;;;;;;;18.63;11.73;;;15.60;98.80;;;;;;12826550;23;20239;-88
2023/04/13 10:16:10;;;;;;;32.93;13.60;;;15.70;99.00;;;;;;12870480;23;20252;-88
2023/04/13 10:21:14;;;;;;;25.73;14.77;;;15.70;99.20;;;;;;12825197;23;20256;-88
2023/04/13 10:26:16;;;;;;;22.40;12.00;;;15.90;99.40;;;;;;12851104;23;20219;-88
2023/04/13 10:31:20;;;;;;;27.93;17.63;;;16.00;99.90;;;;;;12850361;23;20220;-88
2023/04/13 10:36:33;;;;;;;28.87;15.47;;;15.70;95.90;;;;;;12851585;23;20223;-88
2023/04/13 10:41:36;;;;;;;24.17;18.00;;;16.00;98.40;;;;;;12830166;23;20196;-88
2023/04/13 10:46:49;;;;;;;26.93;18.03;;;16.00;94.90;;;;;;12830160;23;20207;-88
2023/04/13 10:51:52;;;;;;;23.10;13.77;;;15.90;94.10;;;;;;12854052;23;20290;-88
2023/04/13 10:56:56;;;;;;;18.37;8.63;;;16.00;96.90;;;;;;12854972;23;20240;-88
2023/04/13 11:02:00;;;;;;;29.07;19.67;;;16.10;99.00;;;;;;12854104;23;20275;-88
2023/04/13 11:07:06;;;;;;;24.80;17.17;;;16.20;93.40;;;;;;12854557;23;20259;-88
2023/04/13 11:12:11;;;;;;;26.47;17.47;;;16.30;92.90;;;;;;12847460;23;20236;-88
2023/04/13 11:17:16;;;;;;;24.60;13.53;;;16.40;92.70;;;;;;12829647;23;20208;-88
2023/04/13 11:22:26;;;;;;;20.33;13.10;;;16.20;94.50;;;;;;12852970;23;20459;-88
2023/04/13 11:27:29;;;;;;;22.63;15.97;;;16.20;97.60;;;;;;12854455;23;20271;-88
2023/04/13 11:32:33;;;;;;;13.37;10.80;;;16.20;94.70;;;;;;12855156;23;20220;-87
2023/04/13 11:37:45;;;;;;;13.53;10.97;;;16.20;96.10;;;;;;12853532;23;20186;-88
2023/04/13 11:42:52;;;;;;;17.20;11.93;;;16.60;98.60;;;;;;12854388;23;20187;-88
2023/04/13 11:47:56;;;;;;;23.67;15.97;;;16.70;95.50;;;;;;12829339;23;20251;-88
2023/04/13 11:52:58;;;;;;;30.80;16.80;;;16.60;91.40;;;;;;12853682;23;20227;-88
2023/04/13 11:58:15;;;;;;;16.73;12.73;;;16.60;91.10;;;;;;12829061;23;20219;-87
2023/04/13 12:03:19;;;;;;;11.30;7.83;;;16.70;91.80;;;;;;12852524;23;20280;-87
2023/04/13 12:08:26;;;;;;;17.03;10.37;;;16.80;94.00;;;;;;12853715;23;20252;-88
2023/04/13 12:13:43;;;;;;;31.53;19.00;;;16.60;94.20;;;;;;12827867;23;20263;-88
2023/04/13 12:19:07;;;;;;;15.40;10.23;;;16.20;93.30;;;;;;12852519;23;20248;-88
2023/04/13 12:24:11;;;;;;;16.10;13.07;;;15.80;95.90;;;;;;12830505;23;20248;-88
2023/04/13 12:29:14;;;;;;;18.77;13.63;;;15.50;93.60;;;;;;12872201;23;20231;-87
2023/04/13 12:34:17;;;;;;;17.07;12.60;;;15.10;94.80;;;;;;12827321;23;20267;-88
2023/04/13 12:39:20;;;;;;;14.23;11.80;;;14.70;96.80;;;;;;12854245;23;20228;-88
2023/04/13 12:44:22;;;;;;;9.63;7.07;;;14.80;99.90;;;;;;12852043;23;20238;-86
2023/04/13 12:49:25;;;;;;;7.77;5.83;;;14.80;99.90;;;;;;12827915;23;20235;-87
2023/04/13 12:54:29;;;;;;;7.20;5.40;;;14.80;99.90;;;;;;12853154;23;20219;-87
2023/04/13 12:59:32;;;;;;;5.67;5.00;;;14.80;99.90;;;;;;12852662;23;20240;-87
2023/04/13 13:04:34;;;;;;;9.63;5.63;;;14.90;99.90;;;;;;12851518;23;20263;-86
2023/04/13 13:09:37;;;;;;;9.20;5.00;;;14.50;99.90;;;;;;12852985;23;20231;-86
2023/04/13 13:14:40;;;;;;;6.00;4.43;;;14.30;99.90;;;;;;12831950;23;20224;-87
2023/04/13 13:19:42;;;;;;;7.07;3.73;;;14.10;99.90;;;;;;12833135;23;20240;-88
2023/04/13 13:24:45;;;;;;;6.23;4.70;;;14.20;99.90;;;;;;12832334;23;20223;-87
2023/04/13 13:29:47;;;;;;;11.10;3.70;;;14.10;99.90;;;;;;12875226;23;20250;-88
2023/04/13 13:34:49;;;;;;;5.97;5.03;;;13.80;99.90;;;;;;12874042;23;20199;-87
2023/04/13 13:39:52;;;;;;;5.10;3.00;;;13.70;99.90;;;;;;12831285;23;20263;-86
2023/04/13 13:44:55;;;;;;;4.13;3.37;;;13.30;99.90;;;;;;12855723;23;20236;-87
2023/04/13 13:49:59;;;;;;;8.10;4.03;;;13.00;99.90;;;;;;12856014;23;20168;-87
2023/04/13 13:55:10;;;;;;;5.93;4.10;;;12.70;99.90;;;;;;12830792;23;20223;-86
2023/04/13 14:00:17;;;;;;;7.67;3.90;;;12.40;99.90;;;;;;12855324;23;20263;-87
2023/04/13 14:05:21;;;;;;;6.47;3.70;;;12.20;99.90;;;;;;12855690;23;20243;-87
2023/04/13 14:10:23;;;;;;;4.70;3.50;;;11.90;98.60;;;;;;12829976;23;20230;-87
2023/04/13 14:15:26;;;;;;;3.70;2.50;;;11.70;99.90;;;;;;12859669;23;20235;-87
2023/04/13 14:20:30;;;;;;;11.17;9.37;;;12.50;99.90;;;;;;12860743;23;20201;-86
2023/04/13 14:25:32;;;;;;;7.57;4.90;;;12.50;99.90;;;;;;12860085;23;20232;-86
2023/04/13 14:30:34;;;;;;;2.60;2.30;;;12.30;99.90;;;;;;12834948;23;20231;-86
2023/04/13 14:35:37;;;;;;;7.43;3.93;;;12.30;99.90;;;;;;12859326;23;20220;-88
2023/04/13 14:40:40;;;;;;;5.23;3.60;;;12.30;99.90;;;;;;12833976;23;20247;-86
2023/04/13 14:45:42;;;;;;;11.37;5.63;;;12.40;99.90;;;;;;12859506;23;20211;-86
2023/04/13 14:50:46;;;;;;;6.97;5.23;;;12.10;99.90;;;;;;12860354;23;20203;-86
2023/04/13 14:55:48;;;;;;;5.93;4.07;;;12.20;99.90;;;;;;12859849;23;20211;-86
2023/04/13 15:00:51;;;;;;;4.50;3.30;;;11.30;99.90;;;;;;12834027;23;20274;-86
2023/04/13 15:05:54;;;;;;;8.13;5.70;;;10.90;99.90;;;;;;12833008;23;20252;-86
2023/04/13 15:11:05;;;;;;;5.27;4.13;;;10.90;99.90;;;;;;12858473;23;20243;-87
2023/04/13 15:16:07;;;;;;;8.30;5.30;;;10.60;99.90;;;;;;12859510;23;20220;-86
2023/04/13 15:21:10;;;;;;;6.43;4.40;;;10.40;99.90;;;;;;12859062;23;20243;-86
2023/04/13 15:26:17;;;;;;;8.00;5.33;;;10.30;99.90;;;;;;12856496;23;20254;-86
2023/04/13 15:31:20;;;;;;;6.90;5.63;;;10.30;99.90;;;;;;12851027;23;20227;-87
2023/04/13 15:36:23;;;;;;;12.80;5.40;;;10.20;99.90;;;;;;12832943;23;20253;-87
2023/04/13 15:41:26;;;;;;;5.07;4.17;;;10.20;99.90;;;;;;12859275;23;20225;-87
2023/04/13 15:46:29;;;;;;;6.50;4.57;;;10.20;99.90;;;;;;12832579;23;20245;-87
2023/04/13 15:51:31;;;;;;;5.67;3.83;;;10.20;99.90;;;;;;12846762;23;20252;-87
2023/04/13 15:56:34;;;;;;;8.03;4.57;;;10.40;99.90;;;;;;12846690;23;20211;-87
2023/04/13 16:01:48;;;;;;;9.10;5.77;;;10.50;99.90;;;;;;12839976;23;20211;-87
2023/04/13 16:06:51;;;;;;;6.63;3.57;;;10.60;99.90;;;;;;12830760;23;20173;-87
2023/04/13 16:12:11;;;;;;;3.53;2.97;;;10.60;99.90;;;;;;12811370;23;20174;-87
2023/04/13 16:17:14;;;;;;;5.17;3.50;;;10.70;99.90;;;;;;12821316;23;20155;-88
2023/04/13 16:22:16;;;;;;;5.97;3.77;;;10.80;99.90;;;;;;12849649;23;20187;-87
2023/04/13 16:27:19;;;;;;;5.73;4.20;;;11.00;99.90;;;;;;12846093;23;20176;-87
2023/04/13 16:32:21;;;;;;;16.00;9.67;;;11.10;99.90;;;;;;12854956;23;20227;-87
2023/04/13 16:37:24;;;;;;;8.20;6.57;;;11.20;99.90;;;;;;12849512;23;20198;-87
2023/04/13 16:42:26;;;;;;;6.00;5.17;;;11.20;99.90;;;;;;12855791;23;20251;-88
2023/04/13 16:47:31;;;;;;;7.17;4.77;;;11.00;99.90;;;;;;12857052;23;20219;-88
2023/04/13 16:52:34;;;;;;;7.80;4.60;;;10.80;99.90;;;;;;12831692;23;20215;-88
2023/04/13 16:57:37;;;;;;;7.70;4.53;;;10.80;99.90;;;;;;12856144;23;20226;-89
2023/04/13 17:02:41;;;;;;;5.27;3.67;;;10.50;99.90;;;;;;12831699;23;20243;-88
2023/04/13 17:07:46;;;;;;;12.60;9.47;;;10.40;99.90;;;;;;12855746;23;20232;-89
2023/04/13 17:12:49;;;;;;;25.77;15.80;;;10.60;99.90;;;;;;12857104;23;20215;-88
2023/04/13 17:17:51;;;;;;;36.40;20.23;;;10.90;99.90;;;;;;12830630;23;20235;-89
2023/04/13 17:22:56;;;;;;;48.17;24.67;;;10.40;99.90;;;;;;12857482;23;20271;-88
2023/04/13 17:27:58;;;;;;;32.23;17.87;;;10.30;99.90;;;;;;12831106;23;20248;-90
2023/04/13 17:33:01;;;;;;;56.53;29.10;;;10.30;99.90;;;;;;12855939;23;20267;-88
2023/04/13 17:38:04;;;;;;;23.40;12.50;;;10.20;99.90;;;;;;12857175;23;20228;-88
2023/04/13 17:43:07;;;;;;;15.33;9.47;;;10.20;99.90;;;;;;12856746;23;20239;-87
2023/04/13 17:48:10;;;;;;;19.63;14.87;;;10.20;99.90;;;;;;12830464;23;20219;-87
2023/04/13 17:53:13;;;;;;;12.33;8.47;;;10.30;99.90;;;;;;12855386;23;20227;-87
2023/04/13 17:58:15;;;;;;;12.27;8.23;;;10.40;99.90;;;;;;12830383;23;20288;-88
2023/04/13 18:03:18;;;;;;;8.10;6.73;;;10.40;99.90;;;;;;12831896;23;20247;-87
2023/04/13 18:08:20;;;;;;;5.10;3.97;;;10.50;99.90;;;;;;12830904;23;20248;-87
2023/04/13 18:13:24;;;;;;;8.37;5.63;;;10.50;99.90;;;;;;12836020;23;20167;-87
2023/04/13 18:18:27;;;;;;;9.80;5.43;;;10.30;99.90;;;;;;12781163;23;20164;-87
2023/04/13 18:23:29;;;;;;;14.33;7.83;;;10.30;99.90;;;;;;12806874;23;20204;-87
2023/04/13 18:28:37;;;;;;;15.77;9.47;;;10.40;99.90;;;;;;12810585;23;20164;-87
2023/04/13 18:33:40;;;;;;;10.90;7.27;;;10.40;99.90;;;;;;12783615;23;20238;-87
2023/04/13 18:38:44;;;;;;;9.13;6.47;;;10.70;99.90;;;;;;12806081;23;20183;-87
2023/04/13 18:43:46;;;;;;;11.43;7.10;;;10.90;99.90;;;;;;12781413;23;20663;-87
2023/04/13 18:48:49;;;;;;;14.07;6.93;;;10.80;99.90;;;;;;12806768;23;20214;-88
2023/04/13 18:53:51;;;;;;;13.90;8.27;;;10.70;99.90;;;;;;12777664;23;20215;-88
2023/04/13 18:58:54;;;;;;;7.77;5.93;;;10.70;99.90;;;;;;12824415;23;20230;-87
2023/04/13 19:03:56;;;;;;;10.13;5.60;;;10.70;99.90;;;;;;12810432;23;20183;-87
2023/04/13 19:08:59;;;;;;;8.63;5.60;;;10.70;99.90;;;;;;12782688;23;20253;-87
2023/04/13 19:14:02;;;;;;;7.73;6.57;;;10.70;99.90;;;;;;12807587;23;20179;-87
2023/04/13 19:19:04;;;;;;;7.30;5.03;;;10.70;99.90;;;;;;12806737;23;20168;-87
2023/04/13 19:24:10;;;;;;;6.73;5.40;;;10.60;99.90;;;;;;12781463;23;20187;-87
2023/04/13 19:29:13;;;;;;;7.93;5.10;;;10.50;99.90;;;;;;12779572;23;20175;-87
2023/04/13 19:34:15;;;;;;;15.20;8.17;;;10.60;99.90;;;;;;12809829;23;20180;-88
2023/04/13 19:39:18;;;;;;;9.63;6.73;;;10.30;99.90;;;;;;12819389;23;20230;-87
2023/04/13 19:44:20;;;;;;;14.40;6.60;;;10.20;99.90;;;;;;12784295;23;20200;-87
2023/04/13 19:49:24;;;;;;;10.93;7.03;;;10.00;99.90;;;;;;12807936;23;20180;-87
2023/04/13 19:54:27;;;;;;;11.43;6.23;;;9.90;99.90;;;;;;12783076;23;20245;-88
2023/04/13 19:59:29;;;;;;;8.53;6.17;;;9.80;99.90;;;;;;12781203;23;20203;-87
2023/04/13 20:04:32;;;;;;;7.80;6.00;;;9.80;99.90;;;;;;12806247;23;20191;-87
2023/04/13 20:09:35;;;;;;;19.70;9.27;;;9.90;99.90;;;;;;12781716;23;20176;-86
2023/04/13 20:14:40;;;;;;;15.70;8.27;;;9.80;99.90;;;;;;12806963;23;20204;-87
2023/04/13 20:19:43;;;;;;;10.90;7.30;;;9.80;99.90;;;;;;12806900;23;20180;-87
2023/04/13 20:24:47;;;;;;;16.73;10.33;;;9.80;99.90;;;;;;12807457;23;20274;-87
2023/04/13 20:29:50;;;;;;;11.77;6.90;;;9.70;99.90;;;;;;12807121;23;20176;-87
2023/04/13 20:34:54;;;;;;;10.37;7.37;;;9.60;99.90;;;;;;12782228;23;20172;-87
2023/04/13 20:39:56;;;;;;;10.77;7.23;;;9.60;99.90;;;;;;12804697;23;20180;-88
2023/04/13 20:45:00;;;;;;;9.63;6.83;;;9.60;99.90;;;;;;12756712;23;20200;-87
2023/04/13 20:50:03;;;;;;;7.33;5.67;;;9.70;99.90;;;;;;12783164;23;20508;-87
2023/04/13 20:55:08;;;;;;;8.27;6.63;;;9.70;99.90;;;;;;12782891;23;20234;-87
2023/04/13 21:00:12;;;;;;;10.77;8.10;;;9.80;99.90;;;;;;12811696;23;20195;-87
2023/04/13 21:05:20;;;;;;;8.57;5.47;;;9.90;99.90;;;;;;12809121;23;20199;-87
2023/04/13 21:10:23;;;;;;;7.03;6.10;;;9.90;99.90;;;;;;12782457;23;20233;-87
2023/04/13 21:15:26;;;;;;;7.93;6.17;;;10.00;99.90;;;;;;12809302;23;20234;-87
2023/04/13 21:20:28;;;;;;;35.33;27.47;;;9.90;99.90;;;;;;12808676;23;20199;-87
2023/04/13 21:25:31;;;;;;;43.17;26.30;;;9.80;99.90;;;;;;12808553;23;20196;-87
2023/04/13 21:30:33;;;;;;;13.10;7.87;;;9.80;99.90;;;;;;12809553;23;20175;-87
2023/04/13 21:35:35;;;;;;;9.33;6.97;;;9.80;99.90;;;;;;12808575;23;20207;-87
2023/04/13 21:40:38;;;;;;;14.70;8.73;;;9.70;99.90;;;;;;12805143;23;20179;-87
2023/04/13 21:45:41;;;;;;;17.43;11.70;;;9.60;99.90;;;;;;12804155;23;20196;-87
2023/04/13 21:50:43;;;;;;;21.23;10.47;;;9.50;99.90;;;;;;12807652;23;20238;-88
2023/04/13 21:55:46;;;;;;;21.20;11.03;;;9.40;99.90;;;;;;12800934;23;20210;-88
2023/04/13 22:00:49;;;;;;;15.53;9.90;;;9.30;99.90;;;;;;12801689;23;20278;-87
2023/04/13 22:05:51;;;;;;;12.03;8.40;;;9.30;99.90;;;;;;12802829;23;20188;-86
2023/04/13 22:10:54;;;;;;;13.97;8.17;;;9.10;99.90;;;;;;12800632;23;20172;-86
2023/04/13 22:15:56;;;;;;;15.33;9.50;;;9.10;99.90;;;;;;12775354;23;20571;-86
2023/04/13 22:20:59;;;;;;;10.13;7.30;;;9.10;99.90;;;;;;12800127;23;20176;-86
2023/04/13 22:26:02;;;;;;;10.23;6.70;;;9.00;99.90;;;;;;12772459;23;20199;-86
2023/04/13 22:31:06;;;;;;;9.17;6.70;;;9.10;99.90;;;;;;12771766;23;20180;-87
2023/04/13 22:36:20;;;;;;;7.93;6.33;;;9.00;99.90;;;;;;12774019;23;20203;-87
2023/04/13 22:41:22;;;;;;;11.00;6.33;;;8.90;99.90;;;;;;12820090;23;20170;-87
2023/04/13 22:46:25;;;;;;;10.33;6.83;;;9.00;99.90;;;;;;12802556;23;20176;-86
2023/04/13 22:51:28;;;;;;;7.87;6.53;;;8.90;99.90;;;;;;12803122;23;20167;-86
2023/04/13 22:56:33;;;;;;;9.33;7.17;;;8.90;99.90;;;;;;12819658;23;20164;-87
2023/04/13 23:01:36;;;;;;;10.63;6.97;;;8.80;99.90;;;;;;12803884;23;20203;-86
2023/04/13 23:06:38;;;;;;;10.73;7.97;;;8.80;99.90;;;;;;12806396;23;20180;-87
2023/04/13 23:11:41;;;;;;;10.03;7.93;;;8.70;99.90;;;;;;12802901;23;20229;-86
2023/04/13 23:16:43;;;;;;;9.67;8.13;;;8.60;99.90;;;;;;12799330;23;20250;-86
2023/04/13 23:21:46;;;;;;;11.33;8.27;;;8.50;99.90;;;;;;12800997;23;20218;-86
2023/04/13 23:26:48;;;;;;;10.57;7.90;;;8.40;99.90;;;;;;12770053;23;20176;-86
2023/04/13 23:31:55;;;;;;;10.27;8.80;;;8.40;99.90;;;;;;12812137;23;20163;-86
2023/04/13 23:36:57;;;;;;;10.67;8.33;;;8.40;99.90;;;;;;12804660;23;20225;-86
2023/04/13 23:42:00;;;;;;;16.17;10.23;;;8.40;99.90;;;;;;12793483;23;20184;-86
2023/04/13 23:47:03;;;;;;;13.70;9.50;;;8.40;99.90;;;;;;12792003;23;20646;-86
2023/04/13 23:52:06;;;;;;;14.03;9.77;;;8.50;99.90;;;;;;12793170;23;20222;-86
2023/04/13 23:57:10;;;;;;;14.13;9.27;;;8.40;99.90;;;;;;12767131;23;20503;-86
